Time;durP1;ratioP1;P1;durP2;ratioP2;P2;SDS_P1;SDS_P2;PMS_P1;PMS_P2;Temp;Humidity;BMP_temperature;BMP_pressure;BME280_temperature;BME280_humidity;BME280_pressure;Samples;Min_cycle;Max_cycle;Signal;HPM_P1;HPM_P2
2022/11/12 00:02:08;;;;;;;32.70;28.30;;;;;;;6.08;98.02;99391.41;102673;1312;22573;-85
2022/11/12 00:04:54;;;;;;;28.60;25.50;;;;;;;5.95;97.15;99395.60;101705;1327;22527;-83
2022/11/12 00:07:41;;;;;;;30.80;26.90;;;;;;;5.85;97.64;99397.29;101727;1320;23543;-85
2022/11/12 00:10:30;;;;;;;30.30;27.00;;;;;;;5.84;97.89;99395.37;102095;1327;23953;-87
2022/11/12 00:13:17;;;;;;;32.30;27.20;;;;;;;5.87;98.01;99389.23;101978;1327;24299;-85
2022/11/12 00:16:07;;;;;;;29.80;26.80;;;;;;;5.88;97.91;99389.10;101888;1327;24428;-88
2022/11/12 00:18:53;;;;;;;29.50;25.70;;;;;;;5.92;97.85;99388.46;101992;1321;22514;-87
2022/11/12 00:21:40;;;;;;;29.90;26.70;;;;;;;5.96;98.16;99386.36;102563;1330;22592;-88
2022/11/12 00:24:27;;;;;;;31.10;27.80;;;;;;;5.98;98.63;99384.61;104651;1327;25353;-88
2022/11/12 00:27:14;;;;;;;29.10;26.30;;;;;;;5.99;98.38;99386.65;101981;1321;25564;-92
2022/11/12 00:30:01;;;;;;;28.80;25.80;;;;;;;6.00;97.95;99388.11;101913;1315;22511;-85
2022/11/12 00:32:48;;;;;;;29.40;26.10;;;;;;;6.01;97.98;99390.44;101625;1327;24487;-88
2022/11/12 00:35:35;;;;;;;28.40;25.60;;;;;;;6.01;97.62;99382.64;101605;1327;22684;-87
2022/11/12 00:38:22;;;;;;;36.00;31.30;;;;;;;6.02;97.76;99380.14;101795;1308;22754;-88
2022/11/12 00:41:09;;;;;;;31.90;28.80;;;;;;;6.00;97.73;99380.73;101725;1327;22701;-88
2022/11/12 00:43:56;;;;;;;30.80;27.70;;;;;;;5.96;97.65;99381.55;101925;1327;22632;-90
2022/11/12 00:47:35;;;;;;;29.70;26.60;;;;;;;5.93;97.67;99376.98;102063;1327;24344;-90
2022/11/12 00:50:22;;;;;;;34.30;30.60;;;;;;;5.90;97.41;99378.97;101677;1327;24075;-87
2022/11/12 00:53:09;;;;;;;35.90;32.50;;;;;;;5.90;97.37;99378.80;102214;1327;22232;-87
2022/11/12 00:56:00;;;;;;;32.80;29.70;;;;;;;5.88;97.30;99380.38;103558;1327;22639;-86
2022/11/12 00:58:47;;;;;;;36.20;32.60;;;;;;;5.87;97.38;99384.01;101777;1327;22491;-86
2022/11/12 01:01:34;;;;;;;42.30;37.90;;;;;;;5.83;97.39;99383.20;101609;1322;22896;-87
2022/11/12 01:04:21;;;;;;;36.00;32.30;;;;;;;5.78;97.25;99382.17;101746;1327;22495;-86
2022/11/12 01:07:07;;;;;;;39.30;35.50;;;;;;;5.74;97.22;99389.78;101783;1311;22636;-87
2022/11/12 01:09:54;;;;;;;34.20;30.90;;;;;;;5.72;97.00;99388.70;101705;1327;24339;-86
2022/11/12 01:12:40;;;;;;;37.40;33.70;;;;;;;5.59;96.72;99383.80;101725;1327;23170;-87
2022/11/12 01:15:27;;;;;;;37.80;34.30;;;;;;;5.42;96.85;99384.95;101694;1304;22508;-85
2022/11/12 01:18:14;;;;;;;37.20;33.50;;;;;;;5.29;96.89;99386.18;101720;1327;24489;-86
2022/11/12 01:21:02;;;;;;;39.80;36.10;;;;;;;5.16;96.83;99388.42;101731;1327;24473;-87
2022/11/12 01:23:49;;;;;;;36.60;33.00;;;;;;;5.13;97.25;99392.55;102059;1327;22723;-84
2022/11/12 01:26:36;;;;;;;31.90;28.90;;;;;;;5.13;97.41;99389.36;102254;1326;22985;-85
2022/11/12 01:29:23;;;;;;;40.90;36.70;;;;;;;5.16;97.27;99387.71;101725;1328;22507;-86
2022/11/12 01:32:09;;;;;;;43.30;39.00;;;;;;;5.11;96.96;99389.73;101654;1326;22504;-85
2022/11/12 01:34:56;;;;;;;42.20;37.90;;;;;;;5.02;96.94;99386.87;101783;1327;24480;-86
2022/11/12 01:37:43;;;;;;;34.40;31.10;;;;;;;4.97;96.98;99385.46;101690;1330;24282;-85
2022/11/12 01:40:31;;;;;;;31.00;27.90;;;;;;;4.91;96.49;99389.30;101631;1308;22515;-90
2022/11/12 01:43:17;;;;;;;34.40;30.90;;;;;;;4.83;96.88;99390.05;102117;1312;22624;-87
2022/11/12 01:46:12;;;;;;;36.50;32.70;;;;;;;4.80;96.44;99390.28;102018;1321;22519;-87
2022/11/12 01:49:03;;;;;;;36.50;33.00;;;;;;;4.72;96.58;99395.55;101779;1330;23847;-92
2022/11/12 01:51:53;;;;;;;38.60;34.90;;;;;;;4.68;96.76;99388.27;104431;1297;22546;-89
2022/11/12 01:54:42;;;;;;;34.40;30.80;;;;;;;4.64;97.02;99386.28;102480;1305;22508;-91
2022/11/12 01:57:38;;;;;;;34.90;31.50;;;;;;;4.62;96.67;99386.48;102051;1317;22560;-91
2022/11/12 02:00:24;;;;;;;;;;;;;;;4.61;96.91;99386.89;102405;1327;22516;-91
2022/11/12 02:03:21;;;;;;;37.90;34.20;;;;;;;4.63;96.95;99391.15;102789;1317;22482;-90
2022/11/12 02:06:11;;;;;;;34.80;31.50;;;;;;;4.63;97.04;99389.54;103436;1305;22479;-87
2022/11/12 02:08:58;;;;;;;36.00;32.40;;;;;;;4.66;97.25;99384.90;104107;1298;22583;-88
2022/11/12 02:11:45;;;;;;;38.50;34.30;;;;;;;4.69;97.73;99388.73;104365;1327;22586;-90
2022/11/12 02:14:31;;;;;;;39.10;35.20;;;;;;;4.73;97.31;99392.17;104357;1290;22496;-91
2022/11/12 02:17:18;;;;;;;36.80;33.00;;;;;;;4.79;97.49;99389.06;102680;1327;22546;-91
2022/11/12 02:20:12;;;;;;;36.00;32.50;;;;;;;4.84;96.93;99392.88;105826;1290;22175;31
2022/11/12 02:23:06;;;;;;;41.70;37.90;;;;;;;4.76;96.15;99393.41;103727;1292;22675;31
2022/11/12 02:25:52;;;;;;;56.50;38.30;;;;;;;4.70;96.43;99398.09;105847;1300;21869;-86
2022/11/12 02:28:44;;;;;;;38.90;35.10;;;;;;;4.63;96.16;99392.50;105295;1299;24054;31
2022/11/12 02:31:36;;;;;;;36.80;33.20;;;;;;;4.50;95.99;99390.59;105128;1289;22327;31
2022/11/12 02:34:27;;;;;;;32.60;29.10;;;;;;;4.39;96.17;99391.38;106899;1287;23563;31
2022/11/12 02:37:13;;;;;;;35.10;31.10;;;;;;;4.18;95.94;99390.44;105371;1291;22241;-91
2022/11/12 02:40:00;;;;;;;37.60;34.10;;;;;;;4.09;96.21;99391.33;105023;1326;22270;-92
2022/11/12 02:42:47;;;;;;;35.50;32.10;;;;;;;4.05;96.58;99391.86;105058;1327;22211;-92
2022/11/12 02:45:38;;;;;;;47.40;42.80;;;;;;;3.97;96.38;99391.91;106350;1297;22800;31
2022/11/12 02:48:32;;;;;;;41.60;37.50;;;;;;;3.90;96.73;99391.05;100958;1289;22414;-80
2022/11/12 02:51:24;;;;;;;40.00;36.30;;;;;;;3.79;96.51;99389.92;106697;1289;22631;-90
2022/11/12 02:54:15;;;;;;;38.50;34.70;;;;;;;3.68;96.41;99391.72;106406;1297;22636;31
2022/11/12 02:57:02;;;;;;;36.60;33.10;;;;;;;3.53;96.45;99389.34;105591;1298;22223;-90
2022/11/12 02:59:49;;;;;;;42.90;38.90;;;;;;;3.53;96.82;99390.98;105171;1321;22231;-93
2022/11/12 03:02:41;;;;;;;45.80;40.60;;;;;;;3.55;97.22;99400.05;105510;1320;22113;-89
2022/11/12 03:05:31;;;;;;;43.50;39.30;;;;;;;3.59;97.60;99397.00;105182;1327;22467;-92
2022/11/12 03:08:17;;;;;;;43.80;39.60;;;;;;;3.62;97.56;99399.23;105158;1327;22011;-90
2022/11/12 03:11:13;;;;;;;35.70;32.00;;;;;;;3.58;97.11;99395.93;105061;1327;22184;-89
2022/11/12 03:14:01;;;;;;;39.80;36.10;;;;;;;3.45;96.86;99398.78;104961;1327;22138;-89
2022/11/12 03:16:47;;;;;;;47.40;42.70;;;;;;;3.39;97.07;99398.13;105287;1304;22672;-90
2022/11/12 03:19:34;;;;;;;51.70;45.70;;;;;;;3.34;97.22;99401.27;105179;1326;22201;-89
2022/11/12 03:22:20;;;;;;;40.90;36.70;;;;;;;3.31;97.50;99402.52;105075;1326;22139;-89
2022/11/12 03:25:08;;;;;;;43.70;39.50;;;;;;;3.27;97.04;99399.64;104929;1322;22088;-90
2022/11/12 03:28:00;;;;;;;36.30;32.80;;;;;;;3.15;96.78;99401.74;104832;1327;22230;-88
2022/11/12 03:30:47;;;;;;;42.70;38.80;;;;;;;3.07;97.44;99402.53;104978;1327;22380;-89
2022/11/12 03:33:33;;;;;;;45.00;41.00;;;;;;;3.02;97.48;99398.42;105088;1327;22211;-91
2022/11/12 03:36:20;;;;;;;44.40;40.40;;;;;;;3.01;97.72;99394.77;104829;1327;22257;-89
2022/11/12 03:39:06;;;;;;;72.80;66.10;;;;;;;2.95;97.20;99385.25;105196;1326;22785;-91
2022/11/12 03:41:53;;;;;;;38.80;35.00;;;;;;;2.90;97.15;99386.35;105098;1309;22093;-92
2022/11/12 03:44:39;;;;;;;41.20;37.20;;;;;;;2.85;96.87;99388.80;105155;1327;22132;-90
2022/11/12 03:47:25;;;;;;;38.50;34.70;;;;;;;2.89;97.35;99384.65;105053;1321;22254;-91
2022/11/12 03:50:18;;;;;;;45.70;41.50;;;;;;;2.93;97.51;99382.10;105616;1293;22349;31
2022/11/12 03:53:13;;;;;;;45.70;41.50;;;;;;;2.95;97.41;99381.41;104798;1291;22298;31
2022/11/12 03:56:05;;;;;;;55.80;50.50;;;;;;;2.86;97.20;99381.98;102859;1289;22135;-83
2022/11/12 03:58:52;;;;;;;47.30;42.90;;;;;;;2.73;97.23;99384.59;106031;1283;22254;-90
2022/11/12 04:01:38;;;;;;;36.90;33.20;;;;;;;2.73;97.59;99387.05;105051;1322;22214;-91
2022/11/12 04:08:34;;;;;;;39.60;35.60;;;;;;;2.71;97.22;99382.47;105575;1311;22185;-89
2022/11/12 04:10:36;;;;;;;38.20;34.50;;;;;;;2.77;97.85;99388.30;105518;1305;22163;-92
2022/11/12 04:13:28;;;;;;;45.20;40.80;;;;;;;2.70;97.08;99387.42;104945;1323;22205;-93
2022/11/12 04:22:26;;;;;;;35.80;32.30;;;;;;;2.58;97.12;99381.58;105371;1309;22029;-92
2022/11/12 04:28:18;;;;;;;43.20;38.60;;;;;;;2.41;97.68;99378.44;105028;1327;22121;-92
2022/11/12 04:31:04;;;;;;;40.00;35.90;;;;;;;2.41;98.02;99379.30;105087;1319;22143;-89
2022/11/12 04:33:51;;;;;;;45.50;41.20;;;;;;;2.36;98.05;99376.70;105360;1306;22216;-91
2022/11/12 04:36:37;;;;;;;44.60;40.40;;;;;;;2.35;98.05;99380.20;105040;1327;22865;-91
2022/11/12 04:39:24;;;;;;;41.90;37.70;;;;;;;2.41;98.77;99380.61;104906;1327;22264;-90
2022/11/12 04:45:15;;;;;;;40.20;36.40;;;;;;;2.58;97.82;99373.14;104967;1327;22042;-90
2022/11/12 04:48:02;;;;;;;42.00;37.90;;;;;;;2.46;98.21;99371.88;105110;1298;22210;-93
2022/11/12 04:50:54;;;;;;;40.00;36.20;;;;;;;2.39;98.37;99368.77;105345;1314;22280;-90
2022/11/12 04:53:40;;;;;;;65.60;59.10;;;;;;;2.38;98.51;99370.55;104964;1327;22101;-93
2022/11/12 04:56:27;;;;;;;46.50;41.90;;;;;;;2.34;98.31;99367.10;105442;1311;22098;-91
2022/11/12 04:59:13;;;;;;;41.60;37.60;;;;;;;2.24;98.02;99365.13;105019;1327;22237;-90
2022/11/12 05:02:00;;;;;;;43.10;38.60;;;;;;;2.17;97.94;99367.70;105012;1326;22940;-90
2022/11/12 05:04:47;;;;;;;50.50;45.50;;;;;;;2.14;98.18;99368.11;105484;1312;22665;-92
2022/11/12 05:07:33;;;;;;;58.30;52.20;;;;;;;2.15;98.38;99375.10;105123;1320;22178;-91
2022/11/12 05:10:20;;;;;;;58.00;52.20;;;;;;;2.19;98.46;99377.02;105026;1327;22191;-91
2022/11/12 05:13:06;;;;;;;59.30;53.10;;;;;;;2.11;98.04;99370.52;105009;1328;22686;-92
2022/11/12 05:15:52;;;;;;;53.30;47.70;;;;;;;2.00;98.51;99366.04;105115;1327;22101;-93
2022/11/12 05:18:39;;;;;;;54.70;49.20;;;;;;;1.93;98.58;99369.13;105235;1324;22981;-92
2022/11/12 05:24:41;;;;;;;49.30;44.30;;;;;;;1.99;99.10;99372.22;105092;1325;23044;-90
2022/11/12 05:27:28;;;;;;;47.20;42.50;;;;;;;2.09;99.09;99370.28;105143;1331;22247;-90
2022/11/12 05:30:14;;;;;;;57.40;52.00;;;;;;;2.03;98.23;99376.42;105198;1327;22105;-84
2022/11/12 05:33:01;;;;;;;58.40;52.70;;;;;;;2.07;98.86;99382.69;105298;1328;22177;-91
2022/11/12 05:35:47;;;;;;;56.90;51.60;;;;;;;2.06;98.84;99382.27;105119;1328;22166;-90
2022/11/12 05:38:33;;;;;;;56.40;51.10;;;;;;;2.05;98.58;99387.52;105059;1322;22232;-89
2022/11/12 05:41:19;;;;;;;50.10;45.20;;;;;;;1.96;98.53;99389.61;105112;1328;22413;-88
2022/11/12 05:44:06;;;;;;;55.90;50.30;;;;;;;1.89;98.69;99389.48;105054;1330;22085;-90
2022/11/12 05:46:52;;;;;;;47.80;43.00;;;;;;;1.82;98.68;99392.28;105235;1311;22354;-90
2022/11/12 05:49:38;;;;;;;49.30;44.50;;;;;;;1.74;98.87;99387.77;104937;1331;23029;-89
2022/11/12 05:52:25;;;;;;;51.80;46.50;;;;;;;1.66;99.35;99387.70;105023;1326;22189;-88
2022/11/12 05:55:12;;;;;;;58.90;53.20;;;;;;;1.62;99.43;99393.91;105046;1326;22177;-90
2022/11/12 05:58:03;;;;;;;56.40;51.10;;;;;;;1.58;99.27;99393.04;105065;1326;22151;-90
2022/11/12 06:00:50;;;;;;;60.70;54.80;;;;;;;1.57;99.05;99395.17;105171;1321;22995;-89
2022/11/12 06:03:36;;;;;;;72.40;65.30;;;;;;;1.53;99.31;99397.63;105070;1321;22134;-89
2022/11/12 06:06:22;;;;;;;64.40;58.40;;;;;;;1.56;99.54;99400.08;105388;1320;22204;-91
2022/11/12 06:09:09;;;;;;;56.90;51.70;;;;;;;1.65;99.57;99400.16;105074;1318;22271;-89
2022/11/12 06:11:56;;;;;;;59.80;54.20;;;;;;;1.61;99.18;99398.03;104934;1330;22110;-88
2022/11/12 06:14:42;;;;;;;55.60;50.00;;;;;;;1.54;99.68;99399.87;105451;1306;22195;-90
2022/11/12 06:17:28;;;;;;;45.40;41.10;;;;;;;1.54;100.00;99404.78;105085;1327;22364;-92
2022/11/12 06:20:14;;;;;;;45.70;41.60;;;;;;;1.56;100.00;99402.45;105084;1327;22216;-87
2022/11/12 06:23:01;;;;;;;45.80;41.30;;;;;;;1.58;99.94;99400.17;105450;1312;22185;-90
2022/11/12 06:25:47;;;;;;;47.50;42.80;;;;;;;1.64;100.00;99401.52;105033;1330;22169;-87
2022/11/12 06:28:33;;;;;;;73.40;66.50;;;;;;;1.66;99.98;99400.46;104903;1326;22234;-87
2022/11/12 06:31:20;;;;;;;50.80;46.10;;;;;;;1.67;99.98;99404.04;104828;1321;22315;-88
2022/11/12 06:34:07;;;;;;;49.80;45.20;;;;;;;1.73;99.99;99410.30;104938;1325;22269;-92
2022/11/12 06:36:53;;;;;;;46.80;41.90;;;;;;;1.82;100.00;99412.44;104945;1327;22208;-88
2022/11/12 06:39:40;;;;;;;47.70;42.50;;;;;;;1.93;99.72;99417.27;105049;1327;22227;-87
2022/11/12 06:42:26;;;;;;;50.60;45.60;;;;;;;2.02;99.97;99419.02;105068;1327;22133;-90
2022/11/12 06:45:13;;;;;;;55.00;49.70;;;;;;;2.15;100.00;99421.86;105439;1314;22221;-87
2022/11/12 06:47:59;;;;;;;56.90;51.60;;;;;;;2.30;100.00;99425.64;105171;1327;22252;-90
2022/11/12 06:50:45;;;;;;;64.70;58.50;;;;;;;2.44;100.00;99427.86;104951;1327;22126;-89
2022/11/12 06:53:32;;;;;;;67.80;59.40;;;;;;;2.61;100.00;99432.98;105060;1328;22526;-93
2022/11/12 06:56:18;;;;;;;44.10;39.70;;;;;;;2.77;100.00;99426.05;105045;1327;22102;-92
2022/11/12 06:59:05;;;;;;;46.40;41.30;;;;;;;2.75;100.00;99422.73;105109;1327;22128;-90
2022/11/12 07:01:51;;;;;;;46.70;42.20;;;;;;;2.75;100.00;99425.77;105293;1298;22156;-92
2022/11/12 07:04:43;;;;;;;49.50;44.80;;;;;;;2.75;100.00;99429.17;105274;1298;22356;31
2022/11/12 07:07:36;;;;;;;54.00;48.80;;;;;;;2.80;100.00;99435.34;105884;1294;23643;31
2022/11/12 07:10:27;;;;;;;48.10;43.60;;;;;;;2.99;100.00;99439.48;106442;1294;24241;31
2022/11/12 07:13:18;;;;;;;54.50;49.30;;;;;;;3.20;100.00;99445.77;104199;1295;23643;31
2022/11/12 07:16:17;;;;;;;51.30;46.40;;;;;;;3.41;100.00;99449.89;105975;1289;22221;31
2022/11/12 07:19:03;;;;;;;52.10;47.10;;;;;;;3.63;100.00;99444.05;105533;1284;23530;-90
2022/11/12 07:21:50;;;;;;;52.30;46.80;;;;;;;3.82;100.00;99441.73;105018;1325;22196;-93
2022/11/12 07:24:36;;;;;;;50.30;45.30;;;;;;;4.03;100.00;99447.16;105127;1327;22107;-91
2022/11/12 07:27:23;;;;;;;50.10;45.20;;;;;;;4.21;100.00;99444.09;105238;1318;22248;-93
2022/11/12 07:30:09;;;;;;;52.50;47.40;;;;;;;4.42;100.00;99447.88;105702;1288;22085;-87
2022/11/12 07:32:59;;;;;;;52.20;47.20;;;;;;;4.62;100.00;99443.94;105853;1295;22193;-86
2022/11/12 07:35:56;;;;;;;54.20;48.80;;;;;;;4.77;100.00;99443.27;105636;1292;22449;31
2022/11/12 07:38:44;;;;;;;58.90;53.20;;;;;;;4.89;100.00;99438.73;104493;1292;22227;-92
2022/11/12 07:41:30;;;;;;;54.00;48.40;;;;;;;4.99;100.00;99440.15;105019;1298;22259;-85
2022/11/12 07:44:23;;;;;;;57.40;51.70;;;;;;;5.12;100.00;99446.19;105303;1298;23578;31
2022/11/12 07:47:10;;;;;;;52.60;47.30;;;;;;;5.26;100.00;99438.00;105145;1304;22995;-93
2022/11/12 07:49:56;;;;;;;60.00;51.70;;;;;;;5.41;100.00;99441.60;105466;1323;22087;-91
2022/11/12 07:52:42;;;;;;;53.10;47.50;;;;;;;5.49;100.00;99440.55;105629;1315;23041;-91
2022/11/12 07:55:28;;;;;;;54.90;49.50;;;;;;;5.52;100.00;99445.17;105032;1327;22209;-90
2022/11/12 07:58:15;;;;;;;49.60;44.50;;;;;;;5.59;100.00;99446.09;105018;1333;22287;-89
2022/11/12 08:01:20;;;;;;;45.50;41.00;;;;;;;5.68;100.00;99445.63;104948;1332;22725;-93
2022/11/12 08:04:12;;;;;;;46.40;40.90;;;;;;;5.78;100.00;99448.34;105280;1297;22474;31
2022/11/12 08:06:59;;;;;;;45.30;40.80;;;;;;;5.84;100.00;99444.07;104959;1329;23057;-93
2022/11/12 08:09:46;;;;;;;51.20;45.10;;;;;;;5.92;100.00;99443.08;105261;1320;22644;-95
2022/11/12 08:12:32;;;;;;;48.80;44.10;;;;;;;5.99;100.00;99446.37;104759;1330;22964;-94
2022/11/12 08:15:24;;;;;;;47.30;42.60;;;;;;;6.09;100.00;99446.19;104967;1294;22458;31
2022/11/12 08:18:10;;;;;;;50.40;42.50;;;;;;;6.24;100.00;99446.85;105272;1299;22093;-83
2022/11/12 08:21:01;;;;;;;50.90;45.70;;;;;;;6.34;100.00;99450.84;105587;1289;22152;-90
2022/11/12 08:23:58;;;;;;;52.80;47.20;;;;;;;6.44;100.00;99451.27;105096;1295;21980;31
2022/11/12 08:26:44;;;;;;;54.70;49.50;;;;;;;6.53;100.00;99449.39;104858;1328;22239;-87
2022/11/12 08:29:31;;;;;;;54.10;49.00;;;;;;;6.62;100.00;99445.89;104872;1329;22151;-90
2022/11/12 08:32:17;;;;;;;43.30;38.90;;;;;;;6.72;100.00;99448.51;105222;1314;22104;-91
2022/11/12 08:35:04;;;;;;;43.80;39.50;;;;;;;6.83;100.00;99449.98;105233;1314;22433;-90
2022/11/12 08:37:50;;;;;;;51.50;46.60;;;;;;;6.92;100.00;99452.31;105202;1298;22143;-91
2022/11/12 08:40:36;;;;;;;56.40;50.50;;;;;;;7.04;100.00;99446.73;104967;1327;22014;-91
2022/11/12 08:43:23;;;;;;;46.80;42.20;;;;;;;7.17;100.00;99455.98;104994;1318;22125;-91
2022/11/12 08:46:09;;;;;;;55.00;49.30;;;;;;;7.23;100.00;99453.09;105444;1304;22181;-89
2022/11/12 08:48:56;;;;;;;44.00;40.10;;;;;;;7.30;100.00;99460.20;104879;1323;22214;-91
2022/11/12 08:51:42;;;;;;;48.70;43.90;;;;;;;7.42;100.00;99457.31;105197;1318;23038;-91
2022/11/12 08:54:29;;;;;;;53.50;48.10;;;;;;;7.53;100.00;99455.49;105531;1319;22187;-90
2022/11/12 08:57:15;;;;;;;51.20;46.30;;;;;;;7.61;100.00;99451.98;105629;1311;22773;-86
2022/11/12 09:00:02;;;;;;;53.40;48.00;;;;;;;7.70;99.87;99455.20;105082;1320;22109;-89
2022/11/12 09:02:49;;;;;;;55.80;49.90;;;;;;;7.74;99.98;99455.65;104967;1326;22298;-87
2022/11/12 09:05:36;;;;;;;55.00;49.50;;;;;;;7.85;99.97;99454.16;104898;1327;22269;-86
2022/11/12 09:08:24;;;;;;;51.60;46.40;;;;;;;7.97;99.11;99460.76;104840;1326;22189;-89
2022/11/12 09:11:11;;;;;;;57.30;51.80;;;;;;;8.05;99.10;99464.16;104961;1313;22274;-90
2022/11/12 09:13:57;;;;;;;63.80;56.80;;;;;;;8.17;98.83;99467.36;105424;1314;22269;-90
2022/11/12 09:16:44;;;;;;;61.80;55.90;;;;;;;8.26;98.68;99465.95;104913;1327;22368;-90
2022/11/12 09:19:30;;;;;;;55.70;50.60;;;;;;;8.36;98.16;99466.53;104948;1327;22222;-92
2022/11/12 09:22:17;;;;;;;57.60;51.80;;;;;;;8.44;98.61;99461.08;105645;1296;22519;-92
2022/11/12 09:25:04;;;;;;;63.10;56.90;;;;;;;8.56;98.63;99463.52;105015;1326;22209;-87
2022/11/12 09:27:50;;;;;;;61.20;54.70;;;;;;;8.68;98.79;99466.15;105152;1327;22150;-91
2022/11/12 09:30:41;;;;;;;62.30;55.80;;;;;;;8.82;98.90;99459.30;104968;1327;22736;-89
2022/11/12 09:33:32;;;;;;;55.70;48.70;;;;;;;8.96;97.62;99452.60;104974;1327;21855;-89
2022/11/12 09:36:18;;;;;;;54.10;48.40;;;;;;;9.04;97.26;99452.34;104992;1322;22293;-92
2022/11/12 09:39:05;;;;;;;50.90;45.70;;;;;;;9.12;96.71;99449.58;105468;1298;22277;-89
2022/11/12 09:41:51;;;;;;;50.50;45.60;;;;;;;9.21;97.11;99447.91;104844;1327;22218;-86
2022/11/12 09:45:07;;;;;;;50.20;45.40;;;;;;;9.33;95.76;99449.23;105121;1312;22213;-90
2022/11/12 09:48:01;;;;;;;41.80;37.50;;;;;;;9.42;96.03;99446.80;105209;1294;22231;-87
2022/11/12 09:50:59;;;;;;;31.30;28.20;;;;;;;9.55;94.67;99444.60;105379;1289;22214;31
2022/11/12 09:54:03;;;;;;;33.90;30.60;;;;;;;9.67;92.71;99448.44;106027;1293;22258;-90
2022/11/12 09:57:13;;;;;;;35.80;32.10;;;;;;;9.78;94.15;99451.88;105367;1299;23079;31
2022/11/12 10:00:02;;;;;;;33.40;29.80;;;;;;;9.91;92.90;99450.59;105528;1285;22362;-88
2022/11/12 10:02:59;;;;;;;31.20;28.10;;;;;;;10.00;93.19;99450.63;105079;1325;22205;-91
2022/11/12 10:05:54;;;;;;;38.50;33.10;;;;;;;10.12;92.82;99449.05;104971;1327;22814;-84
2022/11/12 10:09:08;;;;;;;30.20;27.00;;;;;;;10.25;92.26;99452.45;105280;1320;22996;-87
2022/11/12 10:18:53;;;;;;;36.00;29.50;;;;;;;10.59;90.06;99444.81;105400;1298;22199;-89
2022/11/12 10:21:50;;;;;;;31.10;27.80;;;;;;;10.69;90.60;99441.64;105525;1312;22954;-88
2022/11/12 10:24:38;;;;;;;31.90;29.00;;;;;;;10.75;86.81;99438.98;105006;1327;22864;-89
2022/11/12 10:27:31;;;;;;;27.10;24.30;;;;;;;10.82;88.55;99444.41;104771;1327;22926;-89
2022/11/12 10:30:23;;;;;;;19.80;17.50;;;;;;;10.97;86.76;99440.63;105331;1303;22158;-89
2022/11/12 10:33:14;;;;;;;21.50;17.20;;;;;;;11.05;84.19;99435.98;104926;1326;22218;-88
2022/11/12 10:36:37;;;;;;;21.10;18.30;;;;;;;11.17;86.22;99436.84;104980;1321;22106;-86
2022/11/12 10:39:39;;;;;;;24.40;20.40;;;;;;;11.25;85.29;99441.11;104619;1335;22244;-92
2022/11/12 10:42:26;;;;;;;19.80;17.10;;;;;;;11.37;84.55;99443.15;104540;1336;22243;-88
2022/11/12 10:45:20;;;;;;;19.40;16.40;;;;;;;11.46;84.49;99436.53;104479;1333;22256;-89
2022/11/12 10:48:27;;;;;;;20.40;16.40;;;;;;;11.55;82.17;99434.14;104691;1298;22453;-92
2022/11/12 10:51:22;;;;;;;18.90;16.70;;;;;;;11.61;81.88;99432.41;105000;1299;22184;-92
2022/11/12 10:54:35;;;;;;;18.90;15.60;;;;;;;11.69;80.24;99437.33;104900;1328;21751;-88
2022/11/12 10:57:26;;;;;;;19.70;16.70;;;;;;;11.74;79.34;99432.86;105248;1320;22460;-91
2022/11/12 11:00:12;;;;;;;19.40;16.60;;;;;;;11.80;80.58;99429.02;104981;1306;22264;-89
2022/11/12 11:03:02;;;;;;;21.20;16.20;;;;;;;12.00;81.28;99429.86;105339;1305;22233;-88
2022/11/12 11:06:12;;;;;;;22.20;18.20;;;;;;;13.13;79.14;99427.54;105525;1292;23039;-91
2022/11/12 11:09:12;;;;;;;24.80;18.60;;;;;;;14.91;77.80;99426.65;105254;1292;22359;-83
2022/11/12 11:11:59;;;;;;;23.00;17.30;;;;;;;16.23;76.45;99428.81;105836;1295;23288;-90
2022/11/12 11:14:45;;;;;;;19.20;17.30;;;;;;;16.84;72.32;99431.16;105354;1295;22203;-87
2022/11/12 11:21:49;;;;;;;17.80;16.00;;;;;;;16.27;70.53;99427.77;107063;1288;22207;31
2022/11/12 11:24:42;;;;;;;29.60;17.50;;;;;;;15.73;69.42;99422.55;106179;1298;22985;-91
2022/11/12 11:27:45;;;;;;;21.60;17.20;;;;;;;15.83;67.71;99418.70;105282;1294;22192;-94
2022/11/12 11:30:35;;;;;;;18.70;16.20;;;;;;;16.44;66.46;99420.72;104985;1327;22227;-89
2022/11/12 11:33:32;;;;;;;19.30;17.10;;;;;;;16.98;66.06;99423.30;105377;1286;22740;-92
2022/11/12 11:36:32;;;;;;;19.90;17.90;;;;;;;17.51;62.08;99422.70;105341;1314;22152;-86
2022/11/12 11:39:41;;;;;;;19.50;17.40;;;;;;;17.84;65.21;99416.51;105383;1295;22173;31
2022/11/12 11:42:53;;;;;;;21.40;17.30;;;;;;;18.54;65.05;99413.15;105060;1301;22105;-92
2022/11/12 11:45:54;;;;;;;23.60;18.40;;;;;;;18.94;58.05;99419.02;105186;1306;22118;-88
2022/11/12 11:48:55;;;;;;;19.30;16.60;;;;;;;19.14;60.20;99411.28;105607;1300;23844;-88
2022/11/12 11:51:51;;;;;;;25.10;20.80;;;;;;;19.36;55.71;99411.84;105132;1318;22241;-88
2022/11/12 11:54:57;;;;;;;21.90;16.20;;;;;;;19.21;55.66;99406.16;104811;1327;22208;-91
2022/11/12 11:57:51;;;;;;;17.90;15.20;;;;;;;19.45;53.39;99410.02;105708;1298;22166;-92
2022/11/12 12:00:47;;;;;;;19.80;16.00;;;;;;;19.46;53.11;99400.30;105373;1297;22297;-91
2022/11/12 12:03:45;;;;;;;17.40;14.70;;;;;;;19.78;52.87;99403.54;105098;1321;22077;-89
2022/11/12 12:06:48;;;;;;;20.10;15.40;;;;;;;19.88;50.70;99396.39;105239;1291;22232;-87
2022/11/12 12:09:54;;;;;;;19.10;16.20;;;;;;;20.00;50.75;99391.52;105312;1288;22224;-91
2022/11/12 12:13:08;;;;;;;16.70;13.20;;;;;;;20.08;49.08;99389.69;105457;1308;22970;-92
2022/11/12 12:16:03;;;;;;;17.00;14.50;;;;;;;20.23;50.95;99384.31;105400;1320;22911;-91
2022/11/12 12:19:04;;;;;;;19.60;14.90;;;;;;;20.52;48.38;99379.59;105380;1317;22120;-91
2022/11/12 12:21:51;;;;;;;19.10;14.30;;;;;;;20.45;47.13;99378.03;104931;1326;22223;-88
2022/11/12 12:24:51;;;;;;;16.90;12.60;;;;;;;20.17;46.99;99378.88;104805;1327;22078;-93
2022/11/12 12:27:48;;;;;;;16.90;12.30;;;;;;;20.13;47.48;99377.16;105151;1311;22100;-93
2022/11/12 12:30:39;;;;;;;15.30;12.70;;;;;;;20.31;46.75;99375.82;105458;1320;22175;-89
2022/11/12 12:33:45;;;;;;;18.70;14.10;;;;;;;20.40;46.83;99372.89;105339;1296;22649;31
2022/11/12 12:36:41;;;;;;;16.70;11.80;;;;;;;20.51;47.34;99373.38;105234;1291;22344;31
2022/11/12 12:39:45;;;;;;;13.20;9.50;;;;;;;20.70;44.56;99378.27;105307;1286;23916;31
2022/11/12 12:42:44;;;;;;;12.70;9.40;;;;;;;20.34;42.70;99378.03;105486;1289;22398;-87
2022/11/12 12:45:37;;;;;;;11.30;9.30;;;;;;;20.18;43.04;99373.46;105068;1326;22129;-88
2022/11/12 12:48:29;;;;;;;19.00;14.70;;;;;;;20.23;43.52;99374.98;105139;1324;22399;-91
2022/11/12 12:51:17;;;;;;;21.70;15.50;;;;;;;20.39;43.45;99370.67;105126;1324;22183;-94
2022/11/12 12:54:03;;;;;;;15.60;10.40;;;;;;;20.43;42.42;99370.10;105084;1325;22272;-92
2022/11/12 12:56:50;;;;;;;18.70;11.40;;;;;;;20.25;42.13;99369.92;105594;1317;22176;-93
2022/11/12 12:59:36;;;;;;;14.60;12.00;;;;;;;20.16;42.38;99372.61;105157;1327;23002;-92
2022/11/12 13:02:24;;;;;;;15.50;11.60;;;;;;;20.17;42.62;99369.84;105223;1327;22352;-92
2022/11/12 13:05:29;;;;;;;14.30;12.20;;;;;;;20.19;43.55;99370.91;104997;1327;22175;-88
2022/11/12 13:08:23;;;;;;;18.30;13.40;;;;;;;20.06;42.79;99372.80;105420;1319;22183;-88
2022/11/12 13:14:50;;;;;;;17.70;15.70;;;;;;;19.71;42.26;99371.13;105447;1313;22305;-88
2022/11/12 13:17:45;;;;;;;52.70;47.40;;;;;;;19.71;42.89;99370.64;105082;1327;22222;-89
2022/11/12 13:20:38;;;;;;;17.50;15.40;;;;;;;19.96;42.85;99365.93;104961;1324;22166;-91
2022/11/12 13:27:01;;;;;;;19.90;15.30;;;;;;;20.68;44.85;99371.33;105426;1320;22948;-92
2022/11/12 13:29:47;;;;;;;15.90;13.20;;;;;;;20.79;41.65;99368.47;105113;1326;22118;-92
2022/11/12 13:32:47;;;;;;;15.50;13.30;;;;;;;20.50;41.63;99368.51;105110;1324;22217;-88
2022/11/12 13:35:38;;;;;;;15.50;12.60;;;;;;;19.97;42.14;99371.49;105446;1320;22425;-88
2022/11/12 13:38:25;;;;;;;27.20;21.80;;;;;;;19.52;41.04;99369.52;105144;1327;22236;-91